createdAt,value
2022-08-24T00:01:28.288Z,161510.22
2022-08-24T00:03:59.840Z,161480.66
2022-08-24T00:06:28.734Z,161480.66
2022-08-24T00:08:58.332Z,161471.22
2022-08-24T00:11:26.556Z,161455.16
2022-08-24T00:13:54.944Z,161422.97
2022-08-24T00:16:22.832Z,161392.09
2022-08-24T00:18:50.448Z,161381.38
2022-08-24T00:21:19.119Z,161363.94
2022-08-24T00:23:49.656Z,161342.47
2022-08-24T00:26:17.229Z,161339.81
2022-08-24T00:28:48.620Z,161330.38
2022-08-24T00:31:15.990Z,161319.69
2022-08-24T00:33:43.650Z,161307.59
2022-08-24T00:36:11.641Z,161318.34
2022-08-24T00:38:39.677Z,161323.72
2022-08-24T00:41:07.087Z,161326.38
2022-08-24T00:43:35.300Z,161325.06
2022-08-24T00:46:05.290Z,161326.38
2022-08-24T00:48:34.469Z,161322.34
2022-08-24T00:51:14.720Z,161322.34
2022-08-24T00:53:56.003Z,161323.72
2022-08-24T00:56:30.329Z,161334.44
2022-08-24T00:59:01.163Z,161318.34
2022-08-24T01:01:29.673Z,161333.09
2022-08-24T01:03:57.798Z,161314.31
2022-08-24T01:06:25.484Z,161308.94
2022-08-24T01:08:56.258Z,161295.56
2022-08-24T01:11:30.884Z,161311.63
2022-08-24T01:14:04.193Z,161294.19
2022-08-24T01:16:50.496Z,161304.94
2022-08-24T01:19:39.983Z,161300.88
2022-08-24T01:22:44.589Z,161300.88
2022-08-24T01:25:12.395Z,161284.81
2022-08-24T01:27:40.029Z,161279.44
2022-08-24T01:30:11.861Z,161291.50
2022-08-24T01:32:40.542Z,161274.09
2022-08-24T01:35:09.275Z,161257.97
2022-08-24T01:37:40.261Z,161223.06
2022-08-24T01:40:11.591Z,161216.34
2022-08-24T01:42:39.265Z,161216.34
2022-08-24T01:45:07.336Z,161221.72
2022-08-24T01:47:36.053Z,161208.31
2022-08-24T01:50:04.981Z,161185.53
2022-08-24T01:53:01.515Z,161164.09
2022-08-24T01:55:22.666Z,161148.00
2022-08-24T01:57:50.565Z,161143.97
2022-08-24T02:00:18.439Z,161157.38
2022-08-24T02:02:46.516Z,161153.34
2022-08-24T02:05:15.549Z,161139.97
2022-08-24T02:07:46.102Z,161139.97
2022-08-24T02:10:15.095Z,161134.59
2022-08-24T02:12:44.869Z,161115.81
2022-08-24T02:15:12.995Z,161117.16
2022-08-24T02:17:41.019Z,161123.84
2022-08-24T02:20:09.231Z,161123.84
2022-08-24T02:22:37.019Z,161121.19
2022-08-24T02:25:06.086Z,161121.19
2022-08-24T02:27:35.724Z,161117.16
2022-08-24T02:30:03.769Z,161095.69
2022-08-24T02:32:31.653Z,161085.00
2022-08-24T02:34:59.145Z,161070.25
2022-08-24T02:37:26.774Z,161064.88
2022-08-24T02:39:55.159Z,161056.84
2022-08-24T02:42:25.107Z,161066.22
2022-08-24T02:44:53.810Z,161075.59
2022-08-24T02:47:22.670Z,161070.25
2022-08-24T02:50:07.931Z,161087.66
2022-08-24T02:52:42.185Z,161083.66
2022-08-24T02:55:13.350Z,161072.94
2022-08-24T02:57:41.476Z,161071.59
2022-08-24T03:00:12.289Z,161054.13
2022-08-24T03:02:47.526Z,161027.38
2022-08-24T03:05:15.564Z,161022.00
2022-08-24T03:07:43.689Z,161016.63
2022-08-24T03:10:12.030Z,161011.25
2022-08-24T03:12:40.496Z,161015.31
2022-08-24T03:15:10.762Z,161003.22
2022-08-24T03:17:39.862Z,161008.59
2022-08-24T03:20:12.032Z,161008.59
2022-08-24T03:22:41.061Z,161019.34
2022-08-24T03:25:09.170Z,161024.66
2022-08-24T03:27:37.208Z,160995.19
2022-08-24T03:30:05.749Z,161035.41
2022-08-24T03:32:33.040Z,161048.81
2022-08-24T03:35:02.495Z,161040.78
2022-08-24T03:37:30.285Z,161036.75
2022-08-24T03:39:57.934Z,161016.63
2022-08-24T03:42:26.156Z,161024.66
2022-08-24T03:44:53.575Z,161027.38
2022-08-24T03:47:23.024Z,161038.06
2022-08-24T03:49:51.439Z,161058.19
2022-08-24T03:52:19.093Z,161079.63
2022-08-24T03:54:49.537Z,161085.00
2022-08-24T03:57:16.899Z,161097.09
2022-08-24T03:59:46.674Z,161103.72
2022-08-24T04:02:15.511Z,161113.16
2022-08-24T04:04:43.177Z,161137.25
2022-08-24T04:07:12.299Z,161160.03
2022-08-24T04:09:40.080Z,161165.41
2022-08-24T04:12:07.579Z,161197.63
2022-08-24T04:14:35.488Z,161215.03
2022-08-24T04:17:12.680Z,161239.25
2022-08-24T04:19:58.024Z,161243.22
2022-08-24T04:22:31.338Z,161255.31
2022-08-24T04:24:58.914Z,161253.97
2022-08-24T04:27:28.562Z,161264.69
2022-08-24T04:29:57.035Z,161270.06
2022-08-24T04:32:26.684Z,161279.44
2022-08-24T04:34:56.521Z,161288.84
2022-08-24T04:37:28.027Z,161291.50
2022-08-24T04:39:57.953Z,161302.25
2022-08-24T04:42:33.671Z,161325.06
2022-08-24T04:45:01.724Z,161338.47
2022-08-24T04:47:29.514Z,161361.25
2022-08-24T04:49:56.904Z,161370.63
2022-08-24T04:52:25.250Z,161373.34
2022-08-24T04:54:53.049Z,161389.44
2022-08-24T04:57:23.996Z,161418.94
2022-08-24T04:59:56.739Z,161445.78
2022-08-24T05:02:24.512Z,161453.81
2022-08-24T05:04:57.333Z,161475.28
2022-08-24T05:07:26.033Z,161500.84
2022-08-24T05:09:53.437Z,161475.28
2022-08-24T05:12:21.575Z,161500.84
2022-08-24T05:14:58.899Z,161545.09
2022-08-24T05:17:27.463Z,161566.56
2022-08-24T05:19:54.923Z,161589.38
2022-08-24T05:22:22.153Z,161616.22
2022-08-24T05:24:54.408Z,161636.38
2022-08-24T05:27:25.126Z,161647.06
2022-08-24T05:29:56.564Z,161665.88
2022-08-24T05:32:24.524Z,161673.94
2022-08-24T05:34:53.694Z,161688.69
2022-08-24T05:37:21.001Z,161702.13
2022-08-24T05:40:11.436Z,161730.34
2022-08-24T05:42:41.469Z,161739.75
2022-08-24T05:45:10.920Z,161765.25
2022-08-24T05:47:39.004Z,161796.13
2022-08-24T05:50:19.480Z,161835.09
2022-08-24T05:52:46.794Z,161887.44
2022-08-24T05:55:14.441Z,161950.56
2022-08-24T05:57:43.495Z,162009.69
2022-08-24T06:00:16.763Z,162080.88
2022-08-24T06:02:46.436Z,162135.97
2022-08-24T06:05:14.884Z,162189.78
2022-08-24T06:07:42.764Z,162250.25
2022-08-24T06:10:35.250Z,162273.06
2022-08-24T06:12:59.425Z,162308.03
2022-08-24T06:15:27.313Z,162337.63
2022-08-24T06:17:54.918Z,162363.16
2022-08-24T06:20:22.751Z,162363.16
2022-08-24T06:22:51.039Z,162321.47
2022-08-24T06:25:37.995Z,162345.69
2022-08-24T06:28:05.938Z,162332.25
2022-08-24T06:30:35.007Z,162341.63
2022-08-24T06:33:21.434Z,162372.59
2022-08-24T06:35:52.240Z,162383.31
2022-08-24T06:38:20.596Z,162419.66
2022-08-24T06:40:51.384Z,162450.56
2022-08-24T06:43:21.065Z,162494.97
2022-08-24T06:45:55.287Z,162520.50
2022-08-24T06:48:30.568Z,162574.31
2022-08-24T06:50:59.574Z,162625.44
2022-08-24T06:53:27.883Z,162626.78
2022-08-24T06:55:59.400Z,162622.78
2022-08-24T06:58:29.030Z,162656.38
2022-08-24T07:00:57.714Z,162659.09
2022-08-24T07:03:25.867Z,162629.50
2022-08-24T07:06:05.238Z,162644.28
2022-08-24T07:08:38.319Z,162677.94
2022-08-24T07:11:06.618Z,162660.41
2022-08-24T07:13:34.476Z,162694.06
2022-08-24T07:16:02.502Z,162749.22
2022-08-24T07:18:33.583Z,162803.06
2022-08-24T07:21:04.996Z,162889.19
2022-08-24T07:23:42.086Z,162903.97
2022-08-24T07:26:18.836Z,162885.16
2022-08-24T07:29:05.063Z,162863.66
2022-08-24T07:31:42.919Z,162864.97
2022-08-24T07:34:31.312Z,162890.50
2022-08-24T07:37:00.638Z,162886.50
2022-08-24T07:39:29.023Z,162936.31
2022-08-24T07:42:16.076Z,162948.44
2022-08-24T07:44:45.952Z,162949.78
2022-08-24T07:47:38.851Z,162961.84
2022-08-24T07:50:03.915Z,162992.88
2022-08-24T07:52:32.443Z,163031.91
2022-08-24T07:54:59.727Z,163073.63
2022-08-24T07:57:29.465Z,163111.38
2022-08-24T07:59:59.535Z,163103.25
2022-08-24T08:02:29.976Z,163134.25
2022-08-24T08:05:02.725Z,163107.31
2022-08-24T08:07:31.759Z,163128.84
2022-08-24T08:10:02.092Z,163107.31
2022-08-24T08:12:31.164Z,163101.91
2022-08-24T08:14:59.029Z,163122.09
2022-08-24T08:17:27.207Z,163176.03
2022-08-24T08:19:55.162Z,163200.25
2022-08-24T08:22:42.690Z,163196.19
2022-08-24T08:25:31.874Z,163196.19
2022-08-24T08:28:08.033Z,163177.38
2022-08-24T08:30:47.170Z,163144.97
2022-08-24T08:33:15.447Z,163154.44
2022-08-24T08:35:44.460Z,163134.25
2022-08-24T08:38:12.766Z,163126.16
2022-08-24T08:40:46.404Z,163134.25
2022-08-24T08:43:40.007Z,163180.06
2022-08-24T08:46:16.981Z,163211.06
2022-08-24T08:49:07.876Z,163224.47
2022-08-24T08:51:57.114Z,163275.69
2022-08-24T08:54:31.451Z,163294.50
2022-08-24T08:57:20.655Z,163313.38
2022-08-24T08:59:58.314Z,163326.84
2022-08-24T09:02:48.036Z,163341.66
2022-08-24T09:05:47.474Z,163340.34
2022-08-24T09:08:41.833Z,163384.81
2022-08-24T09:11:41.772Z,163352.47
2022-08-24T09:14:12.256Z,163368.66
2022-08-24T09:17:02.579Z,163357.88
2022-08-24T09:19:52.834Z,163390.22
2022-08-24T09:22:21.266Z,163400.97
2022-08-24T09:24:55.061Z,163421.19
2022-08-24T09:28:01.693Z,163423.84
2022-08-24T09:30:39.929Z,163458.91
2022-08-24T09:33:18.409Z,163504.72
2022-08-24T09:36:05.983Z,163499.34
2022-08-24T09:38:52.399Z,163515.47
2022-08-24T09:41:41.523Z,163514.16
2022-08-24T09:44:34.041Z,163568.13
2022-08-24T09:47:28.185Z,163611.22
2022-08-24T09:50:14.077Z,163573.47
2022-08-24T09:52:52.281Z,163588.34
2022-08-24T09:55:36.487Z,163642.22
2022-08-24T09:58:41.269Z,163717.75
2022-08-24T10:01:28.322Z,163696.16
2022-08-24T10:04:24.257Z,163661.09
2022-08-24T10:07:10.447Z,163666.50
2022-08-24T10:09:56.785Z,163702.94
2022-08-24T10:12:47.343Z,163759.56
2022-08-24T10:15:21.534Z,163816.19
2022-08-24T10:18:17.934Z,163822.94
2022-08-24T10:21:25.656Z,163782.47
2022-08-24T10:24:13.462Z,163774.38
2022-08-24T10:26:51.144Z,163786.47
2022-08-24T10:29:58.293Z,163794.63
2022-08-24T10:32:47.801Z,163828.28
2022-08-24T10:35:22.714Z,163859.31
2022-08-24T10:38:46.275Z,163884.97
2022-08-24T10:41:51.824Z,163902.50
2022-08-24T10:44:43.827Z,163921.34
2022-08-24T10:47:29.347Z,163967.25
2022-08-24T10:50:02.796Z,164034.69
2022-08-24T10:52:48.414Z,164100.81
2022-08-24T10:55:42.506Z,164162.84
2022-08-24T10:58:31.804Z,164112.94
2022-08-24T11:01:27.621Z,164029.28
2022-08-24T11:04:03.168Z,163976.66
2022-08-24T11:06:37.100Z,163956.44
2022-08-24T11:09:19.278Z,163951.06
2022-08-24T11:11:49.981Z,163934.84
2022-08-24T11:14:27.653Z,163847.16
2022-08-24T11:17:15.239Z,163868.78
2022-08-24T11:19:43.778Z,163913.28
2022-08-24T11:22:31.724Z,163972.66
2022-08-24T11:25:05.188Z,163969.91
2022-08-24T11:27:38.504Z,163964.50
2022-08-24T11:30:20.165Z,163991.50
2022-08-24T11:32:58.655Z,163942.94
2022-08-24T11:35:31.953Z,164011.72
2022-08-24T11:38:32.442Z,164087.34
2022-08-24T11:41:07.107Z,164088.66
2022-08-24T11:43:41.258Z,164131.84
2022-08-24T11:46:30.276Z,164181.75
2022-08-24T11:49:32.752Z,164166.91
2022-08-24T11:52:11.205Z,164204.72
2022-08-24T11:54:51.199Z,164185.81
2022-08-24T11:57:23.091Z,164223.63
2022-08-24T12:00:13.814Z,164277.56
2022-08-24T12:03:04.523Z,164322.13
2022-08-24T12:06:17.268Z,164315.38
2022-08-24T12:08:55.981Z,164270.81
2022-08-24T12:11:31.601Z,164230.38
2022-08-24T12:14:20.455Z,164250.63
2022-08-24T12:17:01.278Z,164197.97
2022-08-24T12:19:35.756Z,164183.09
2022-08-24T12:22:06.290Z,164161.50
2022-08-24T12:24:40.237Z,164172.31
2022-08-24T12:27:21.648Z,164188.50
2022-08-24T12:29:54.612Z,164158.81
2022-08-24T12:32:25.938Z,164162.84
2022-08-24T12:35:06.164Z,164115.66
2022-08-24T12:37:47.213Z,164037.44
2022-08-24T12:40:32.539Z,164079.25
2022-08-24T12:43:45.905Z,164098.09
2022-08-24T12:46:17.490Z,164106.19
2022-08-24T12:49:12.871Z,164064.34
2022-08-24T12:51:59.062Z,164010.38
2022-08-24T12:54:29.119Z,164046.84
2022-08-24T12:57:16.237Z,164009.06
2022-08-24T12:59:47.900Z,164009.06
2022-08-24T13:02:15.788Z,164019.81
2022-08-24T13:04:57.069Z,164029.28
2022-08-24T13:07:24.832Z,164081.94
2022-08-24T13:09:58.318Z,164131.84
2022-08-24T13:12:45.243Z,164121.00
2022-08-24T13:15:28.363Z,164122.41
2022-08-24T13:18:09.553Z,164106.19
2022-08-24T13:20:37.223Z,164166.91
2022-08-24T13:23:07.573Z,164150.75
2022-08-24T13:25:58.791Z,164149.34
2022-08-24T13:28:32.142Z,164157.50
2022-08-24T13:31:06.797Z,164173.66
2022-08-24T13:33:50.917Z,164208.78
2022-08-24T13:36:36.995Z,164160.16
2022-08-24T13:39:17.811Z,164149.34
2022-08-24T13:41:49.599Z,164160.16
2022-08-24T13:44:37.533Z,164169.59
2022-08-24T13:47:28.326Z,164135.91
2022-08-24T13:50:28.089Z,164134.50
2022-08-24T13:53:34.085Z,164104.84
2022-08-24T13:56:32.418Z,164107.56
2022-08-24T13:59:16.733Z,164088.66
2022-08-24T14:02:05.117Z,164100.81
2022-08-24T14:04:47.615Z,164148.00
2022-08-24T14:07:15.667Z,164154.75
2022-08-24T14:10:14.460Z,164177.69
2022-08-24T14:13:05.365Z,164237.13
2022-08-24T14:16:14.105Z,164247.91
2022-08-24T14:19:04.140Z,164257.38
2022-08-24T14:21:47.597Z,164280.31
2022-08-24T14:24:45.722Z,164307.28
2022-08-24T14:27:35.440Z,164273.56
2022-08-24T14:30:29.585Z,164274.88
2022-08-24T14:33:00.199Z,164277.56
2022-08-24T14:36:10.232Z,164300.53
2022-08-24T14:38:54.644Z,164301.88
2022-08-24T14:41:31.429Z,164296.47
2022-08-24T14:44:36.878Z,164308.63
2022-08-24T14:47:17.210Z,164285.72
2022-08-24T14:49:45.243Z,164301.88
2022-08-24T14:52:50.596Z,164282.97
2022-08-24T14:55:56.927Z,164270.81
2022-08-24T14:58:47.239Z,164301.88
2022-08-24T15:01:56.702Z,164292.41
2022-08-24T15:04:37.684Z,164301.88
2022-08-24T15:07:27.274Z,164255.97
2022-08-24T15:09:56.308Z,164276.22
2022-08-24T15:12:37.365Z,164277.56
2022-08-24T15:15:27.371Z,164285.72
2022-08-24T15:17:58.391Z,164270.81
2022-08-24T15:20:37.976Z,164261.41
2022-08-24T15:23:11.853Z,164269.47
2022-08-24T15:25:48.069Z,164257.38
2022-08-24T15:28:25.891Z,164230.38
2022-08-24T15:31:11.326Z,164227.66
2022-08-24T15:33:57.909Z,164245.22
2022-08-24T15:36:26.516Z,164237.13
2022-08-24T15:38:54.618Z,164229.03
2022-08-24T15:41:26.169Z,164233.06
2022-08-24T15:43:57.156Z,164196.63
2022-08-24T15:46:37.148Z,164172.31
2022-08-24T15:49:28.987Z,164126.41
2022-08-24T15:52:34.224Z,164072.50
2022-08-24T15:55:04.509Z,164064.34
2022-08-24T15:57:37.177Z,164060.34
2022-08-24T16:00:15.309Z,164050.91
2022-08-24T16:02:43.800Z,164044.16
2022-08-24T16:05:24.470Z,164014.41
2022-08-24T16:08:04.560Z,163968.56
2022-08-24T16:10:41.472Z,163952.41
2022-08-24T16:13:31.483Z,163938.91
2022-08-24T16:16:11.156Z,163930.84
2022-08-24T16:18:46.557Z,163932.19
2022-08-24T16:21:33.962Z,163911.94
2022-08-24T16:24:05.855Z,163901.19
2022-08-24T16:26:53.370Z,163886.28
2022-08-24T16:29:39.704Z,163911.94
2022-08-24T16:32:21.538Z,163897.09
2022-08-24T16:35:09.845Z,163901.19
2022-08-24T16:37:39.467Z,163910.59
2022-08-24T16:40:08.665Z,163911.94
2022-08-24T16:42:37.005Z,163901.19
2022-08-24T16:45:06.509Z,163890.38
2022-08-24T16:47:34.107Z,163875.53
2022-08-24T16:50:01.569Z,163847.16
2022-08-24T16:52:29.691Z,163836.34
2022-08-24T16:54:57.911Z,163843.09
2022-08-24T16:57:31.605Z,163837.75
2022-08-24T16:59:59.887Z,163837.75
2022-08-24T17:02:27.399Z,163808.03
2022-08-24T17:04:55.064Z,163774.38
2022-08-24T17:07:25.615Z,163752.81
2022-08-24T17:09:53.854Z,163746.06
2022-08-24T17:12:21.557Z,163727.19
2022-08-24T17:14:49.387Z,163709.69
2022-08-24T17:17:21.353Z,163679.94
2022-08-24T17:19:50.527Z,163640.88
2022-08-24T17:22:18.443Z,163616.63
2022-08-24T17:24:46.604Z,163592.34
2022-08-24T17:27:14.938Z,163554.63
2022-08-24T17:29:44.721Z,163510.13
2022-08-24T17:32:13.306Z,163480.44
2022-08-24T17:34:41.063Z,163468.34
2022-08-24T17:37:09.831Z,163449.47
2022-08-24T17:39:37.299Z,163427.94
2022-08-24T17:42:13.745Z,163380.75
2022-08-24T17:44:53.271Z,163322.78
2022-08-24T17:47:20.991Z,163295.84
2022-08-24T17:49:48.529Z,163242.00
2022-08-24T17:52:16.318Z,163243.34
2022-08-24T17:54:43.792Z,163225.88
2022-08-24T17:57:12.802Z,163169.25
2022-08-24T17:59:41.007Z,163123.44
2022-08-24T18:02:13.118Z,163112.69
2022-08-24T18:04:41.514Z,163091.16
2022-08-24T18:07:12.608Z,163072.28
2022-08-24T18:09:48.689Z,163062.88
2022-08-24T18:12:18.543Z,163015.75
2022-08-24T18:14:46.373Z,162994.22
2022-08-24T18:17:21.090Z,162982.03
2022-08-24T18:19:51.032Z,162963.22
2022-08-24T18:22:18.495Z,162951.09
2022-08-24T18:24:45.905Z,162938.97
2022-08-24T18:27:22.426Z,162920.16
2022-08-24T18:29:54.691Z,162881.13
2022-08-24T18:32:22.611Z,162863.66
2022-08-24T18:34:56.026Z,162852.84
2022-08-24T18:37:24.531Z,162838.06
2022-08-24T18:39:52.182Z,162811.13
2022-08-24T18:42:19.668Z,162778.81
2022-08-24T18:44:47.408Z,162764.03
2022-08-24T18:47:15.779Z,162750.56
2022-08-24T18:49:43.204Z,162755.97
2022-08-24T18:52:13.777Z,162762.63
2022-08-24T18:54:44.886Z,162768.03
2022-08-24T18:57:12.709Z,162768.03
2022-08-24T18:59:41.310Z,162781.50
2022-08-24T19:02:31.429Z,162784.16
2022-08-24T19:05:03.420Z,162782.81
2022-08-24T19:07:32.758Z,162776.09
2022-08-24T19:10:00.937Z,162768.03
2022-08-24T19:12:31.498Z,162759.97
2022-08-24T19:14:59.752Z,162742.50
2022-08-24T19:17:29.038Z,162730.38
2022-08-24T19:19:56.498Z,162729.03
2022-08-24T19:22:25.303Z,162716.91
2022-08-24T19:24:53.950Z,162710.19
2022-08-24T19:27:21.649Z,162696.75
2022-08-24T19:29:56.960Z,162683.28
2022-08-24T19:32:27.201Z,162687.34
2022-08-24T19:34:55.523Z,162681.94
2022-08-24T19:37:23.552Z,162679.28
2022-08-24T19:39:51.367Z,162687.34
2022-08-24T19:42:19.254Z,162692.72
2022-08-24T19:45:04.983Z,162719.59
2022-08-24T19:47:34.765Z,162751.91
2022-08-24T19:50:03.073Z,162772.09
2022-08-24T19:52:32.742Z,162764.03
2022-08-24T19:55:00.899Z,162761.31
2022-08-24T19:57:34.051Z,162757.28
2022-08-24T20:00:19.778Z,162725.00
2022-08-24T20:02:48.872Z,162708.84
2022-08-24T20:05:18.052Z,162671.22
2022-08-24T20:07:46.647Z,162559.50
2022-08-24T20:10:15.717Z,162470.75
2022-08-24T20:12:43.726Z,162361.81
2022-08-24T20:15:12.268Z,162334.91
2022-08-24T20:17:39.783Z,162334.91
2022-08-24T20:20:09.490Z,162332.25
2022-08-24T20:22:37.499Z,162281.19
2022-08-24T20:25:06.262Z,162269.06
2022-08-24T20:27:34.184Z,162246.22
2022-08-24T20:30:01.990Z,162220.69
2022-08-24T20:32:29.789Z,162224.75
2022-08-24T20:34:57.538Z,162211.28
2022-08-24T20:37:27.755Z,162228.75
2022-08-24T20:39:57.336Z,162242.19
2022-08-24T20:42:28.028Z,162226.06
2022-08-24T20:44:55.819Z,162219.34
2022-08-24T20:47:23.745Z,162218.00
2022-08-24T20:49:51.948Z,162211.28
2022-08-24T20:52:19.381Z,162207.25
2022-08-24T20:54:47.096Z,162220.69
2022-08-24T20:57:18.334Z,162200.53
2022-08-24T20:59:46.462Z,162188.47
2022-08-24T21:02:14.262Z,162173.59
2022-08-24T21:04:42.182Z,162131.97
2022-08-24T21:07:11.868Z,162090.31
2022-08-24T21:09:39.628Z,162102.38
2022-08-24T21:12:08.346Z,162076.88
2022-08-24T21:14:35.922Z,162080.88
2022-08-24T21:17:05.808Z,162066.09
2022-08-24T21:19:34.403Z,162047.34
2022-08-24T21:22:02.002Z,162043.28
2022-08-24T21:24:29.722Z,162024.47
2022-08-24T21:26:58.742Z,162002.97
2022-08-24T21:29:29.390Z,161989.59
2022-08-24T21:32:15.485Z,161953.22
2022-08-24T21:34:43.092Z,161941.16
2022-08-24T21:37:13.124Z,161931.72
2022-08-24T21:39:41.083Z,161895.47
2022-08-24T21:42:09.815Z,161882.06
2022-08-24T21:44:37.175Z,161860.56
2022-08-24T21:47:06.733Z,161851.19
2022-08-24T21:49:34.822Z,161843.13
2022-08-24T21:52:02.527Z,161828.38
2022-08-24T21:54:30.208Z,161805.56
2022-08-24T21:56:58.474Z,161818.94
2022-08-24T21:59:26.210Z,161802.84
2022-08-24T22:01:53.760Z,161793.47
2022-08-24T22:04:21.453Z,161774.66
2022-08-24T22:06:50.123Z,161775.97
2022-08-24T22:09:17.881Z,161759.88
2022-08-24T22:11:45.824Z,161762.53
2022-08-24T22:14:15.387Z,161750.50
2022-08-24T22:16:45.065Z,161738.41
2022-08-24T22:19:14.058Z,161730.34
2022-08-24T22:21:47.874Z,161723.59
2022-08-24T22:24:16.764Z,161722.25
2022-08-24T22:26:44.288Z,161718.22
2022-08-24T22:29:11.832Z,161706.16
2022-08-24T22:31:42.210Z,161708.81
2022-08-24T22:34:13.106Z,161699.44
2022-08-24T22:36:47.419Z,161694.06
2022-08-24T22:39:14.970Z,161695.41
2022-08-24T22:41:42.481Z,161691.34
2022-08-24T22:44:22.317Z,161692.75
2022-08-24T22:46:55.784Z,161683.31
2022-08-24T22:49:26.736Z,161680.63
2022-08-24T22:51:54.342Z,161707.50
2022-08-24T22:54:22.396Z,161706.16
2022-08-24T22:56:52.654Z,161687.34
2022-08-24T22:59:28.959Z,161712.81
2022-08-24T23:01:58.047Z,161714.22
2022-08-24T23:04:29.314Z,161715.53
2022-08-24T23:06:57.109Z,161720.94
2022-08-24T23:09:25.390Z,161714.22
2022-08-24T23:11:52.809Z,161711.50
2022-08-24T23:14:21.356Z,161690.03
2022-08-24T23:16:50.069Z,161718.22
2022-08-24T23:19:38.674Z,161724.91
2022-08-24T23:22:08.319Z,161718.22
2022-08-24T23:24:36.521Z,161715.53
2022-08-24T23:27:05.177Z,161730.34
2022-08-24T23:29:33.377Z,161719.53
2022-08-24T23:32:01.756Z,161723.59
2022-08-24T23:34:31.835Z,161716.88
2022-08-24T23:36:59.856Z,161719.53
2022-08-24T23:39:28.045Z,161723.59
2022-08-24T23:41:55.785Z,161716.88
2022-08-24T23:44:27.199Z,161711.50
2022-08-24T23:46:55.497Z,161735.75
2022-08-24T23:49:23.375Z,161723.59
2022-08-24T23:51:52.534Z,161731.69
2022-08-24T23:54:22.093Z,161726.25
2022-08-24T23:56:50.623Z,161735.75
2022-08-24T23:59:27.563Z,161746.44
